createdAt,value
2018-11-22T00:00:28.100Z,50.10
2018-11-22T00:03:15.663Z,50.10
2018-11-22T00:06:03.189Z,50.30
2018-11-22T00:08:50.732Z,50.20
2018-11-22T00:11:38.299Z,50.20
2018-11-22T00:14:25.859Z,50.20
2018-11-22T00:17:13.382Z,50.20
2018-11-22T00:20:01.202Z,50.10
2018-11-22T00:22:48.753Z,50.20
2018-11-22T00:25:36.280Z,50.50
2018-11-22T00:28:24.717Z,50.10
2018-11-22T00:31:12.245Z,50.10
2018-11-22T00:33:59.779Z,50.10
2018-11-22T00:36:47.310Z,50.20
2018-11-22T00:39:34.884Z,50.30
2018-11-22T00:42:22.680Z,50.30
2018-11-22T00:45:11.357Z,50.30
2018-11-22T00:47:58.894Z,50.20
2018-11-22T00:50:46.423Z,50.30
2018-11-22T00:53:34.016Z,50.20
2018-11-22T00:56:21.536Z,50.20
2018-11-22T00:59:09.112Z,50.20
2018-11-22T01:01:56.638Z,50.30
2018-11-22T01:04:44.193Z,50.20
2018-11-22T01:07:31.724Z,50.20
2018-11-22T01:10:20.638Z,50.20
2018-11-22T01:13:08.176Z,50.30
2018-11-22T01:15:55.722Z,50.30
2018-11-22T01:18:43.268Z,50.30
2018-11-22T01:21:31.094Z,50.30
2018-11-22T01:24:18.642Z,50.30
2018-11-22T01:27:06.164Z,50.30
2018-11-22T01:29:53.724Z,50.30
2018-11-22T01:32:42.273Z,50.20
2018-11-22T01:35:29.810Z,50.20
2018-11-22T01:38:17.336Z,50.20
2018-11-22T01:41:04.916Z,50.20
2018-11-22T01:43:52.444Z,50.20
2018-11-22T01:46:39.986Z,50.20
2018-11-22T01:49:27.531Z,50.10
2018-11-22T01:52:15.065Z,50.20
2018-11-22T01:55:02.621Z,50.20
2018-11-22T01:57:50.186Z,50.20
2018-11-22T02:00:37.723Z,50.30
2018-11-22T02:03:17.909Z,50.30
2018-11-22T02:05:58.429Z,50.30
2018-11-22T02:08:39.249Z,50.30
2018-11-22T02:11:19.870Z,50.20
2018-11-22T02:14:00.320Z,50.30
2018-11-22T02:16:40.516Z,50.20
2018-11-22T02:19:21.329Z,50.20
2018-11-22T02:22:01.972Z,50.20
2018-11-22T02:24:42.243Z,50.20
2018-11-22T02:27:23.013Z,50.20
2018-11-22T02:30:03.437Z,50.20
2018-11-22T02:32:44.800Z,50.30
2018-11-22T02:35:26.042Z,50.30
2018-11-22T02:38:06.612Z,50.30
2018-11-22T02:40:46.817Z,50.30
2018-11-22T02:43:27.203Z,50.30
2018-11-22T02:46:07.767Z,50.30
2018-11-22T02:48:47.957Z,50.30
2018-11-22T02:51:28.316Z,50.30
2018-11-22T02:54:08.639Z,50.30
2018-11-22T02:56:49.604Z,50.30
2018-11-22T02:59:29.967Z,50.30
2018-11-22T03:02:10.190Z,50.30
2018-11-22T03:04:50.407Z,50.30
2018-11-22T03:07:31.023Z,50.10
2018-11-22T03:12:52.252Z,50.30
2018-11-22T03:15:33.292Z,50.30
2018-11-22T03:18:14.249Z,50.40
2018-11-22T03:20:54.473Z,50.40
2018-11-22T03:23:35.083Z,50.30
2018-11-22T03:26:15.836Z,50.30
2018-11-22T03:28:55.990Z,50.30
2018-11-22T03:31:37.366Z,50.40
2018-11-22T03:34:18.213Z,50.30
2018-11-22T03:36:58.790Z,50.30
2018-11-22T03:39:37.623Z,50.30
2018-11-22T03:42:25.169Z,50.30
2018-11-22T03:45:13.625Z,50.20
2018-11-22T03:48:01.169Z,50.30
2018-11-22T03:50:49.065Z,50.30
2018-11-22T03:53:36.597Z,50.30
2018-11-22T03:56:24.142Z,50.30
2018-11-22T03:59:11.920Z,50.30
2018-11-22T04:01:59.464Z,50.30
2018-11-22T04:04:47.275Z,50.30
2018-11-22T04:07:35.246Z,50.30
2018-11-22T04:10:23.736Z,50.30
2018-11-22T04:13:11.280Z,50.30
2018-11-22T04:15:58.823Z,50.30
2018-11-22T04:18:46.376Z,50.20
2018-11-22T04:21:53.171Z,50.20
2018-11-22T04:24:40.705Z,50.30
2018-11-22T04:27:28.273Z,50.20
2018-11-22T04:30:17.703Z,50.30
2018-11-22T04:33:05.269Z,50.30
2018-11-22T04:35:52.797Z,51.00
2018-11-22T04:38:47.835Z,50.30
2018-11-22T04:41:35.383Z,50.30
2018-11-22T04:44:22.912Z,50.30
2018-11-22T04:47:10.709Z,50.30
2018-11-22T04:49:58.236Z,50.30
2018-11-22T04:52:46.012Z,50.30
2018-11-22T04:55:33.548Z,50.30
2018-11-22T04:58:21.099Z,50.30
2018-11-22T05:01:08.668Z,50.30
2018-11-22T05:03:56.193Z,50.30
2018-11-22T05:06:43.996Z,50.30
2018-11-22T05:09:31.525Z,50.30
2018-11-22T05:12:19.067Z,50.40
2018-11-22T05:15:07.427Z,50.40
2018-11-22T05:17:55.341Z,50.40
2018-11-22T05:20:43.390Z,50.40
2018-11-22T05:23:30.936Z,50.30
2018-11-22T05:26:18.466Z,50.30
2018-11-22T05:29:12.394Z,50.20
2018-11-22T05:31:53.870Z,50.20
2018-11-22T05:34:41.717Z,50.20
2018-11-22T05:37:29.272Z,50.20
2018-11-22T05:43:25.256Z,50.10
2018-11-22T05:46:12.802Z,50.20
2018-11-22T05:49:00.339Z,50.30
2018-11-22T05:51:47.875Z,50.30
2018-11-22T05:54:35.409Z,50.30
2018-11-22T05:57:22.947Z,50.30
2018-11-22T06:00:11.340Z,50.30
2018-11-22T06:03:00.085Z,50.30
2018-11-22T06:05:47.612Z,50.30
2018-11-22T06:08:35.152Z,50.30
2018-11-22T06:11:22.769Z,50.30
2018-11-22T06:14:10.318Z,50.30
2018-11-22T06:16:57.879Z,50.30
2018-11-22T06:19:45.399Z,50.30
2018-11-22T06:22:32.960Z,50.20
2018-11-22T06:25:20.881Z,50.30
2018-11-22T06:28:08.442Z,50.30
2018-11-22T06:30:55.979Z,50.30
2018-11-22T06:33:43.752Z,50.30
2018-11-22T06:36:31.275Z,50.40
2018-11-22T06:39:18.815Z,50.40
2018-11-22T06:42:06.345Z,50.40
2018-11-22T06:44:54.170Z,50.40
2018-11-22T06:47:41.725Z,50.40
2018-11-22T06:50:29.725Z,50.50
2018-11-22T06:53:17.565Z,50.40
2018-11-22T06:56:05.372Z,50.40
2018-11-22T06:58:52.940Z,50.40
2018-11-22T07:01:40.740Z,50.30
2018-11-22T07:04:28.303Z,50.40
2018-11-22T07:07:15.829Z,50.30
2018-11-22T07:10:03.841Z,50.30
2018-11-22T07:15:44.705Z,50.30
2018-11-22T07:18:32.238Z,50.30
2018-11-22T07:21:19.775Z,50.40
2018-11-22T07:24:07.327Z,50.40
2018-11-22T07:26:54.859Z,50.40
2018-11-22T07:29:42.424Z,50.30
2018-11-22T07:32:29.987Z,50.30
2018-11-22T07:35:18.823Z,50.30
2018-11-22T07:38:06.673Z,50.30
2018-11-22T07:40:54.200Z,50.20
2018-11-22T07:43:41.740Z,50.20
2018-11-22T07:46:29.565Z,50.20
2018-11-22T07:49:17.322Z,50.20
2018-11-22T07:52:04.995Z,50.80
2018-11-22T07:54:52.558Z,50.20
2018-11-22T07:57:40.084Z,50.30
2018-11-22T08:00:46.857Z,50.20
2018-11-22T08:03:34.388Z,50.30
2018-11-22T08:06:21.911Z,50.20
2018-11-22T08:09:09.663Z,50.10
2018-11-22T08:11:57.183Z,50.10
2018-11-22T08:14:44.728Z,50.10
2018-11-22T08:17:32.266Z,50.10
2018-11-22T08:20:22.023Z,50.00
2018-11-22T08:23:10.038Z,50.10
2018-11-22T08:25:57.579Z,50.10
2018-11-22T08:28:45.134Z,50.10
2018-11-22T08:31:32.667Z,50.10
2018-11-22T08:34:20.332Z,50.10
2018-11-22T08:37:07.874Z,50.00
2018-11-22T08:39:55.411Z,50.00
2018-11-22T08:42:43.184Z,50.00
2018-11-22T08:45:31.810Z,50.10
2018-11-22T08:48:19.364Z,50.00
2018-11-22T08:51:06.899Z,49.90
2018-11-22T08:53:54.440Z,50.00
2018-11-22T08:56:42.312Z,50.00
2018-11-22T08:59:29.849Z,50.00
2018-11-22T09:02:17.652Z,49.90
2018-11-22T09:05:06.216Z,50.00
2018-11-22T09:07:53.739Z,50.00
2018-11-22T09:10:41.292Z,50.00
2018-11-22T09:13:28.815Z,50.00
2018-11-22T09:16:16.357Z,50.00
2018-11-22T09:19:04.484Z,50.00
2018-11-22T09:21:52.073Z,50.00
2018-11-22T09:24:39.617Z,50.00
2018-11-22T09:27:27.438Z,50.00
2018-11-22T09:30:16.579Z,49.90
2018-11-22T09:33:04.126Z,50.00
2018-11-22T09:35:51.676Z,49.90
2018-11-22T09:38:39.222Z,49.80
2018-11-22T09:41:26.790Z,49.90
2018-11-22T09:44:14.326Z,50.00
2018-11-22T09:47:01.853Z,50.00
2018-11-22T09:49:49.461Z,50.00
2018-11-22T09:52:36.997Z,50.00
2018-11-22T09:55:24.550Z,49.90
2018-11-22T09:58:12.083Z,49.90
2018-11-22T10:00:59.924Z,49.80
2018-11-22T10:03:47.468Z,49.90
2018-11-22T10:06:35.008Z,49.90
2018-11-22T10:09:22.589Z,49.90
2018-11-22T10:12:10.366Z,49.90
2018-11-22T10:17:51.877Z,49.80
2018-11-22T10:20:39.426Z,49.80
2018-11-22T10:23:27.509Z,49.80
2018-11-22T10:26:15.049Z,49.80
2018-11-22T10:29:02.578Z,49.80
2018-11-22T10:31:50.217Z,49.80
2018-11-22T10:34:37.677Z,49.90
2018-11-22T10:37:25.202Z,49.90
2018-11-22T10:40:13.452Z,49.90
2018-11-22T10:45:49.995Z,49.90
2018-11-22T10:48:37.533Z,49.90
2018-11-22T10:51:25.118Z,49.90
2018-11-22T10:54:12.651Z,49.90
2018-11-22T10:57:00.197Z,49.90
2018-11-22T10:59:47.750Z,49.90
2018-11-22T11:02:54.493Z,49.80
2018-11-22T11:06:01.250Z,50.40
2018-11-22T11:08:49.078Z,49.90
2018-11-22T11:11:36.624Z,49.80
2018-11-22T11:14:24.166Z,49.90
2018-11-22T11:17:11.708Z,49.80
2018-11-22T11:19:59.510Z,49.80
2018-11-22T11:22:47.037Z,49.80
2018-11-22T11:25:34.611Z,49.80
2018-11-22T11:28:22.155Z,49.70
2018-11-22T11:31:10.024Z,49.70
2018-11-22T11:33:57.547Z,49.70
2018-11-22T11:36:45.388Z,49.70
2018-11-22T11:39:32.920Z,49.70
2018-11-22T11:42:20.474Z,49.70
2018-11-22T11:45:08.531Z,49.80
2018-11-22T11:47:56.298Z,49.80
2018-11-22T11:50:43.845Z,49.80
2018-11-22T11:53:41.070Z,49.70
2018-11-22T11:56:18.958Z,49.70
2018-11-22T11:59:06.488Z,49.70
2018-11-22T12:01:54.033Z,49.70
2018-11-22T12:04:41.557Z,49.70
2018-11-22T12:07:29.113Z,49.70
2018-11-22T12:10:18.307Z,49.70
2018-11-22T12:13:06.262Z,49.70
2018-11-22T12:15:53.799Z,49.70
2018-11-22T12:18:41.331Z,49.70
2018-11-22T12:21:28.870Z,49.80
2018-11-22T12:24:16.394Z,49.80
2018-11-22T12:27:03.951Z,49.80
2018-11-22T12:29:51.728Z,49.90
2018-11-22T12:32:58.506Z,49.80
2018-11-22T12:36:05.266Z,49.70
2018-11-22T12:38:52.806Z,49.80
2018-11-22T12:41:33.457Z,49.80
2018-11-22T12:44:13.654Z,49.80
2018-11-22T12:46:53.903Z,49.80
2018-11-22T12:49:34.069Z,49.80
2018-11-22T12:52:14.912Z,49.70
2018-11-22T12:54:55.366Z,49.80
2018-11-22T12:57:36.102Z,49.80
2018-11-22T13:00:17.062Z,49.80
2018-11-22T13:02:57.361Z,49.80
2018-11-22T13:05:37.702Z,49.80
2018-11-22T13:08:18.318Z,49.80
2018-11-22T13:10:59.326Z,49.80
2018-11-22T13:13:39.759Z,49.90
2018-11-22T13:16:20.929Z,49.70
2018-11-22T13:19:01.418Z,49.80
2018-11-22T13:21:41.888Z,49.70
2018-11-22T13:24:23.044Z,49.90
2018-11-22T13:27:03.483Z,49.90
2018-11-22T13:29:43.674Z,49.80
2018-11-22T13:32:23.867Z,49.60
2018-11-22T13:35:04.842Z,49.70
2018-11-22T13:37:46.443Z,49.70
2018-11-22T13:40:27.485Z,49.60
2018-11-22T13:43:08.051Z,49.70
2018-11-22T13:45:49.118Z,49.60
2018-11-22T13:48:29.720Z,49.70
2018-11-22T13:51:10.391Z,49.70
2018-11-22T13:53:50.721Z,49.70
2018-11-22T13:56:31.812Z,49.60
2018-11-22T13:59:12.285Z,49.60
2018-11-22T14:01:52.632Z,50.30
2018-11-22T14:04:33.710Z,49.70
2018-11-22T14:07:13.390Z,49.70
2018-11-22T14:09:53.580Z,49.60
2018-11-22T14:12:33.790Z,49.60
2018-11-22T14:15:14.115Z,49.60
2018-11-22T14:18:03.416Z,49.70
2018-11-22T14:20:50.959Z,49.60
2018-11-22T14:23:38.505Z,49.70
2018-11-22T14:26:26.047Z,49.70
2018-11-22T14:29:13.608Z,49.70
2018-11-22T14:32:01.138Z,49.70
2018-11-22T14:34:48.681Z,49.70
2018-11-22T14:37:36.208Z,49.70
2018-11-22T14:40:25.323Z,49.70
2018-11-22T14:43:13.105Z,49.70
2018-11-22T14:46:00.696Z,49.70
2018-11-22T14:48:48.479Z,49.60
2018-11-22T14:51:55.494Z,49.50
2018-11-22T14:54:43.035Z,50.20
2018-11-22T14:57:30.790Z,49.60
2018-11-22T15:00:18.352Z,49.70
2018-11-22T15:03:05.914Z,49.70
2018-11-22T15:05:53.442Z,49.60
2018-11-22T15:08:40.988Z,49.60
2018-11-22T15:11:28.531Z,49.70
2018-11-22T15:14:16.076Z,49.60
2018-11-22T15:17:03.654Z,49.50
2018-11-22T15:19:51.206Z,49.30
2018-11-22T15:22:39.982Z,49.40
2018-11-22T15:25:28.848Z,49.20
2018-11-22T15:28:16.667Z,49.20
2018-11-22T15:31:04.406Z,49.10
2018-11-22T15:33:51.970Z,49.10
2018-11-22T15:36:39.511Z,49.10
2018-11-22T15:39:27.283Z,48.90
2018-11-22T15:42:14.814Z,48.90
2018-11-22T15:45:02.375Z,49.50
2018-11-22T15:47:49.934Z,49.00
2018-11-22T15:50:37.476Z,48.90
2018-11-22T15:53:25.310Z,49.10
2018-11-22T15:56:12.850Z,49.60
2018-11-22T15:59:00.602Z,49.60
2018-11-22T16:01:48.130Z,49.50
2018-11-22T16:04:35.697Z,49.60
2018-11-22T16:07:23.228Z,49.60
2018-11-22T16:10:12.999Z,49.60
2018-11-22T16:13:01.685Z,49.60
2018-11-22T16:15:53.951Z,49.60
2018-11-22T16:18:41.476Z,49.70
2018-11-22T16:21:29.401Z,49.80
2018-11-22T16:24:16.953Z,49.80
2018-11-22T16:27:04.757Z,49.80
2018-11-22T16:29:52.312Z,49.90
2018-11-22T16:32:39.863Z,49.80
2018-11-22T16:35:33.161Z,49.90
2018-11-22T16:38:15.793Z,50.00
2018-11-22T16:41:03.336Z,50.00
2018-11-22T16:43:50.879Z,50.00
2018-11-22T16:46:38.451Z,49.90
2018-11-22T16:49:25.991Z,50.10
2018-11-22T16:52:13.830Z,50.10
2018-11-22T16:55:01.387Z,50.10
2018-11-22T16:57:49.943Z,50.00
2018-11-22T17:00:38.714Z,50.00
2018-11-22T17:03:26.263Z,50.00
2018-11-22T17:06:13.806Z,50.00
2018-11-22T17:09:01.349Z,49.90
2018-11-22T17:11:48.896Z,49.90
2018-11-22T17:14:36.462Z,50.00
2018-11-22T17:17:24.102Z,50.00
2018-11-22T17:20:13.035Z,50.00
2018-11-22T17:23:01.065Z,49.90
2018-11-22T17:25:48.603Z,50.00
2018-11-22T17:28:36.132Z,49.90
2018-11-22T17:31:23.803Z,49.80
2018-11-22T17:34:11.327Z,49.90
2018-11-22T17:36:58.868Z,49.80
2018-11-22T17:39:46.420Z,49.80
2018-11-22T17:42:33.943Z,49.80
2018-11-22T17:45:22.615Z,49.80
2018-11-22T17:48:10.215Z,49.80
2018-11-22T17:50:57.759Z,49.80
2018-11-22T17:53:45.555Z,49.70
2018-11-22T17:56:33.098Z,49.70
2018-11-22T17:59:20.833Z,49.80
2018-11-22T18:02:08.379Z,49.80
2018-11-22T18:04:55.931Z,49.80
2018-11-22T18:07:43.559Z,49.80
2018-11-22T18:10:32.866Z,49.80
2018-11-22T18:13:20.392Z,49.80
2018-11-22T18:16:07.952Z,49.70
2018-11-22T18:18:55.492Z,49.80
2018-11-22T18:21:43.072Z,49.70
2018-11-22T18:24:30.623Z,49.80
2018-11-22T18:27:18.180Z,49.70
2018-11-22T18:30:07.718Z,49.70
2018-11-22T18:32:56.861Z,49.70
2018-11-22T18:35:44.399Z,49.70
2018-11-22T18:38:31.936Z,49.70
2018-11-22T18:41:19.488Z,49.80
2018-11-22T18:44:07.017Z,49.80
2018-11-22T18:46:54.805Z,49.90
2018-11-22T18:49:42.327Z,49.90
2018-11-22T18:52:29.891Z,49.80
2018-11-22T18:55:17.423Z,49.90
2018-11-22T18:58:05.628Z,49.90
2018-11-22T19:00:53.163Z,49.90
2018-11-22T19:03:40.707Z,49.90
2018-11-22T19:06:28.248Z,49.90
2018-11-22T19:09:16.123Z,50.00
2018-11-22T19:12:03.705Z,50.00
2018-11-22T19:14:51.230Z,50.00
2018-11-22T19:17:39.207Z,50.00
2018-11-22T19:20:28.030Z,50.00
2018-11-22T19:23:15.830Z,50.00
2018-11-22T19:26:03.381Z,50.00
2018-11-22T19:28:51.388Z,50.00
2018-11-22T19:31:38.947Z,50.10
2018-11-22T19:34:26.489Z,50.00
2018-11-22T19:37:14.291Z,50.00
2018-11-22T19:40:01.824Z,50.10
2018-11-22T19:42:50.513Z,50.10
2018-11-22T19:45:42.943Z,50.00
2018-11-22T19:48:30.498Z,50.00
2018-11-22T19:51:18.353Z,50.00
2018-11-22T19:54:05.895Z,50.00
2018-11-22T19:56:53.449Z,50.00
2018-11-22T19:59:41.227Z,50.20
2018-11-22T20:02:28.768Z,50.70
2018-11-22T20:05:17.462Z,50.00
2018-11-22T20:08:06.751Z,50.00
2018-11-22T20:10:54.731Z,50.00
2018-11-22T20:13:42.295Z,50.10
2018-11-22T20:16:29.844Z,50.10
2018-11-22T20:19:17.612Z,50.10
2018-11-22T20:22:05.450Z,50.10
2018-11-22T20:24:52.976Z,50.10
2018-11-22T20:27:41.314Z,50.10
2018-11-22T20:30:48.088Z,50.10
2018-11-22T20:33:35.634Z,50.00
2018-11-22T20:36:23.471Z,50.00
2018-11-22T20:39:12.366Z,50.00
2018-11-22T20:41:59.911Z,50.10
2018-11-22T20:44:47.436Z,50.10
2018-11-22T20:47:35.011Z,50.10
2018-11-22T20:50:23.904Z,50.10
2018-11-22T20:53:11.448Z,50.10
2018-11-22T20:55:59.851Z,50.10
2018-11-22T20:58:46.518Z,50.10
2018-11-22T21:01:34.067Z,50.10
2018-11-22T21:04:21.625Z,50.10
2018-11-22T21:07:09.148Z,50.00
2018-11-22T21:09:56.691Z,50.10
2018-11-22T21:12:44.468Z,50.10
2018-11-22T21:15:32.863Z,50.10
2018-11-22T21:18:20.650Z,50.10
2018-11-22T21:21:08.187Z,50.10
2018-11-22T21:23:55.737Z,50.00
2018-11-22T21:26:43.752Z,50.10
2018-11-22T21:29:31.290Z,50.10
2018-11-22T21:32:18.843Z,50.00
2018-11-22T21:35:06.464Z,50.10
2018-11-22T21:37:55.402Z,49.90
2018-11-22T21:40:42.948Z,50.00
2018-11-22T21:43:30.505Z,50.00
2018-11-22T21:46:30.820Z,50.00
2018-11-22T21:49:18.366Z,50.00
2018-11-22T21:52:05.911Z,50.00
2018-11-22T21:54:53.455Z,50.00
2018-11-22T21:57:41.747Z,50.00
2018-11-22T22:00:49.220Z,50.00
2018-11-22T22:03:36.759Z,50.00
2018-11-22T22:06:24.293Z,50.30
2018-11-22T22:09:11.839Z,50.30
2018-11-22T22:11:59.691Z,50.20
2018-11-22T22:14:47.231Z,50.10
2018-11-22T22:17:35.163Z,50.10
2018-11-22T22:20:27.201Z,50.00
2018-11-22T22:23:14.743Z,50.00
2018-11-22T22:26:02.320Z,50.00
2018-11-22T22:28:49.860Z,50.10
2018-11-22T22:31:37.921Z,50.10
2018-11-22T22:34:25.464Z,50.10
2018-11-22T22:37:13.280Z,50.10
2018-11-22T22:40:03.752Z,50.10
2018-11-22T22:42:49.563Z,50.10
2018-11-22T22:45:37.113Z,50.20
2018-11-22T22:48:24.923Z,50.20
2018-11-22T22:51:12.468Z,50.20
2018-11-22T22:54:00.378Z,50.20
2018-11-22T22:56:47.907Z,50.20
2018-11-22T22:59:35.494Z,50.20
2018-11-22T23:02:23.206Z,50.20
2018-11-22T23:08:04.450Z,50.20
2018-11-22T23:10:52.014Z,50.20
2018-11-22T23:13:39.555Z,50.20
2018-11-22T23:16:27.094Z,50.20
2018-11-22T23:19:14.634Z,50.20
2018-11-22T23:21:55.345Z,50.20
2018-11-22T23:24:36.202Z,50.20
2018-11-22T23:27:17.033Z,50.30
2018-11-22T23:29:57.794Z,50.20
2018-11-22T23:32:38.918Z,50.20
2018-11-22T23:35:19.304Z,50.20
2018-11-22T23:38:00.294Z,50.20
2018-11-22T23:40:41.312Z,50.10
2018-11-22T23:43:21.772Z,50.10
2018-11-22T23:46:02.035Z,50.10
2018-11-22T23:48:42.215Z,50.10
2018-11-22T23:51:22.943Z,50.20
2018-11-22T23:54:03.375Z,50.20
2018-11-22T23:56:43.603Z,50.00
2018-11-22T23:59:23.918Z,50.20
